createdAt,value
2023-12-30T00:04:46.668Z,7.93
2023-12-30T00:09:49.597Z,8.63
2023-12-30T00:14:52.765Z,7.28
2023-12-30T00:19:57.803Z,6.18
2023-12-30T00:25:01.387Z,8.13
2023-12-30T00:30:05.536Z,8.57
2023-12-30T00:35:10.364Z,8.48
2023-12-30T00:40:13.653Z,7.05
2023-12-30T00:45:17.467Z,6.78
2023-12-30T00:50:20.001Z,6.47
2023-12-30T00:55:23.414Z,6.15
2023-12-30T01:00:26.162Z,6.57
2023-12-30T01:05:28.758Z,4.60
2023-12-30T01:10:32.384Z,5.30
2023-12-30T01:15:36.377Z,8.55
2023-12-30T01:20:39.141Z,6.30
2023-12-30T01:25:43.918Z,6.18
2023-12-30T01:30:46.582Z,7.18
2023-12-30T01:35:49.149Z,3.42
2023-12-30T01:40:51.811Z,6.82
2023-12-30T01:45:58.821Z,6.45
2023-12-30T01:51:03.505Z,8.55
2023-12-30T01:56:07.276Z,5.95
2023-12-30T02:01:12.016Z,5.82
2023-12-30T02:06:14.693Z,4.22
2023-12-30T02:11:17.463Z,6.32
2023-12-30T02:16:20.293Z,5.32
2023-12-30T02:21:23.822Z,7.43
2023-12-30T02:26:26.395Z,8.80
2023-12-30T02:31:29.148Z,10.27
2023-12-30T02:36:31.744Z,7.13
2023-12-30T02:41:34.946Z,7.47
2023-12-30T02:46:37.585Z,6.43
2023-12-30T02:51:40.215Z,11.20
2023-12-30T02:56:42.861Z,7.18
2023-12-30T03:01:45.518Z,4.50
2023-12-30T03:06:48.275Z,7.97
2023-12-30T03:11:50.889Z,8.50
2023-12-30T03:16:53.967Z,13.45
2023-12-30T03:21:56.713Z,8.60
2023-12-30T03:26:59.405Z,8.32
2023-12-30T03:32:02.712Z,9.23
2023-12-30T03:37:05.326Z,6.28
2023-12-30T03:42:08.144Z,8.07
2023-12-30T03:47:10.804Z,8.60
2023-12-30T03:52:13.563Z,11.20
2023-12-30T03:57:16.394Z,9.88
2023-12-30T04:02:22.591Z,10.00
2023-12-30T04:07:25.392Z,11.07
2023-12-30T04:12:28.201Z,13.02
2023-12-30T04:17:30.923Z,11.63
2023-12-30T04:22:35.121Z,13.82
2023-12-30T04:27:37.887Z,14.55
2023-12-30T04:32:40.789Z,10.00
2023-12-30T04:37:43.480Z,14.80
2023-12-30T04:42:46.100Z,17.33
2023-12-30T04:47:49.040Z,12.95
2023-12-30T04:52:51.798Z,16.40
2023-12-30T04:57:54.571Z,19.27
2023-12-30T05:02:57.700Z,18.25
2023-12-30T05:08:02.760Z,22.48
2023-12-30T05:13:06.402Z,21.50
2023-12-30T05:18:09.234Z,19.60
2023-12-30T05:23:11.808Z,18.13
2023-12-30T05:28:14.575Z,18.30
2023-12-30T05:33:17.233Z,20.30
2023-12-30T05:38:20.181Z,23.23
2023-12-30T05:43:24.424Z,22.75
2023-12-30T05:48:28.257Z,19.50
2023-12-30T05:53:30.926Z,23.35
2023-12-30T05:58:36.333Z,28.38
2023-12-30T06:08:41.530Z,28.38
2023-12-30T06:13:44.311Z,25.50
2023-12-30T06:18:46.943Z,24.95
2023-12-30T06:23:49.643Z,27.13
2023-12-30T06:28:52.580Z,29.85
2023-12-30T06:33:55.491Z,24.80
2023-12-30T06:38:58.180Z,23.42
2023-12-30T06:44:00.796Z,18.25
2023-12-30T06:49:03.587Z,22.27
2023-12-30T06:54:07.240Z,26.30
2023-12-30T06:59:12.630Z,26.23
2023-12-30T07:04:15.832Z,19.35
2023-12-30T07:09:18.536Z,20.15
2023-12-30T07:14:21.195Z,23.08
2023-12-30T07:19:23.963Z,14.70
2023-12-30T07:24:26.855Z,22.75
2023-12-30T07:29:29.586Z,19.98
2023-12-30T07:34:32.276Z,25.27
2023-12-30T07:39:34.847Z,23.52
2023-12-30T07:44:39.543Z,18.92
2023-12-30T07:49:42.349Z,17.65
2023-12-30T07:54:45.002Z,17.63
2023-12-30T07:59:48.121Z,19.42
2023-12-30T08:04:50.832Z,21.08
2023-12-30T08:09:53.648Z,15.40
2023-12-30T08:14:56.443Z,14.57
2023-12-30T08:19:59.269Z,20.95
2023-12-30T08:25:02.173Z,22.08
2023-12-30T08:30:07.249Z,26.85
2023-12-30T08:35:11.810Z,17.92
2023-12-30T08:40:16.212Z,26.63
2023-12-30T08:45:21.507Z,19.48
2023-12-30T08:55:26.922Z,21.02
2023-12-30T09:00:29.793Z,15.90
2023-12-30T09:05:34.053Z,13.80
2023-12-30T09:10:36.923Z,18.00
2023-12-30T09:15:40.473Z,22.08
2023-12-30T09:20:44.313Z,16.00
2023-12-30T09:25:48.041Z,20.67
2023-12-30T09:30:51.178Z,11.02
2023-12-30T09:35:56.366Z,21.25
2023-12-30T09:46:06.213Z,14.27
2023-12-30T09:51:10.395Z,16.27
2023-12-30T09:56:13.836Z,8.52
2023-12-30T10:01:18.090Z,11.45
2023-12-30T10:06:23.456Z,12.43
2023-12-30T10:11:26.521Z,12.85
2023-12-30T10:16:31.280Z,13.35
2023-12-30T10:21:34.251Z,11.30
2023-12-30T10:26:41.347Z,19.02
2023-12-30T10:31:44.495Z,13.63
2023-12-30T10:36:47.965Z,22.23
2023-12-30T10:41:50.704Z,16.25
2023-12-30T10:46:55.231Z,16.02
2023-12-30T10:52:05.328Z,20.27
2023-12-30T10:57:16.248Z,17.52
2023-12-30T11:02:19.130Z,17.52
2023-12-30T11:07:22.559Z,23.17
2023-12-30T11:12:29.211Z,17.30
2023-12-30T11:17:36.289Z,15.07
2023-12-30T11:22:38.941Z,14.70
2023-12-30T11:27:41.832Z,11.40
2023-12-30T11:32:47.151Z,13.20
2023-12-30T11:37:55.991Z,12.50
2023-12-30T11:42:58.906Z,18.05
2023-12-30T11:48:01.524Z,14.88
2023-12-30T11:53:04.944Z,13.23
2023-12-30T11:58:08.463Z,20.05
2023-12-30T12:03:12.128Z,13.10
2023-12-30T12:08:14.865Z,17.00
2023-12-30T12:13:25.169Z,22.77
2023-12-30T12:18:28.316Z,15.98
2023-12-30T12:23:32.355Z,16.58
2023-12-30T12:28:37.034Z,14.00
2023-12-30T12:33:40.374Z,12.65
2023-12-30T12:38:43.554Z,10.23
2023-12-30T12:43:46.432Z,13.95
2023-12-30T12:48:50.255Z,11.07
2023-12-30T12:53:53.577Z,14.30
2023-12-30T12:58:57.364Z,17.92
2023-12-30T13:04:00.581Z,22.25
2023-12-30T13:09:21.227Z,17.20
2023-12-30T13:14:28.321Z,16.02
2023-12-30T13:19:32.746Z,13.13
2023-12-30T13:24:36.062Z,19.40
2023-12-30T13:29:38.761Z,21.40
2023-12-30T13:34:42.143Z,19.98
2023-12-30T13:39:45.416Z,16.08
2023-12-30T13:44:48.897Z,17.83
2023-12-30T13:50:06.882Z,24.27
2023-12-30T13:55:15.384Z,22.00
2023-12-30T14:00:19.806Z,23.70
2023-12-30T14:05:32.060Z,22.65
2023-12-30T14:10:34.942Z,22.60
2023-12-30T14:15:37.685Z,19.30
2023-12-30T14:20:41.296Z,28.67
2023-12-30T14:25:46.291Z,22.67
2023-12-30T14:30:49.327Z,20.45
2023-12-30T14:35:55.105Z,16.25
2023-12-30T14:40:57.867Z,27.45
2023-12-30T14:46:01.260Z,30.98
2023-12-30T14:51:06.288Z,26.67
2023-12-30T14:56:09.902Z,43.10
2023-12-30T15:01:12.956Z,38.92
2023-12-30T15:06:16.433Z,35.72
2023-12-30T15:11:19.357Z,33.92
2023-12-30T15:16:23.623Z,16.98
2023-12-30T15:21:26.854Z,31.33
2023-12-30T15:26:30.959Z,26.17
2023-12-30T15:31:34.041Z,26.08
2023-12-30T15:36:37.070Z,30.48
2023-12-30T15:41:39.947Z,28.60
2023-12-30T15:46:44.323Z,29.90
2023-12-30T15:51:47.164Z,24.75
2023-12-30T15:56:53.494Z,27.63
2023-12-30T16:01:56.152Z,36.05
2023-12-30T16:06:59.224Z,20.85
2023-12-30T16:12:01.964Z,27.50
2023-12-30T16:17:04.913Z,30.13
2023-12-30T16:22:07.999Z,31.63
2023-12-30T16:27:12.114Z,28.02
2023-12-30T16:32:14.920Z,28.83
2023-12-30T16:37:17.845Z,31.13
2023-12-30T16:42:20.415Z,33.08
2023-12-30T16:47:23.789Z,27.60
2023-12-30T16:52:26.408Z,34.95
2023-12-30T16:57:29.448Z,33.28
2023-12-30T17:02:32.454Z,32.78
2023-12-30T17:07:36.380Z,30.75
2023-12-30T17:12:39.253Z,33.33
2023-12-30T17:17:42.421Z,33.97
2023-12-30T17:22:45.032Z,35.05
2023-12-30T17:27:48.302Z,33.55
2023-12-30T17:32:51.545Z,34.05
2023-12-30T17:37:55.046Z,34.50
2023-12-30T17:42:58.068Z,37.70
2023-12-30T17:48:01.278Z,36.20
2023-12-30T17:53:04.329Z,35.97
2023-12-30T17:58:07.608Z,35.00
2023-12-30T18:03:10.426Z,29.83
2023-12-30T18:08:13.793Z,33.90
2023-12-30T18:13:16.975Z,32.50
2023-12-30T18:18:20.056Z,33.65
2023-12-30T18:23:22.959Z,30.75
2023-12-30T18:28:26.115Z,26.15
2023-12-30T18:33:29.065Z,23.35
2023-12-30T18:38:32.461Z,33.83
2023-12-30T18:43:36.327Z,35.25
2023-12-30T18:48:39.567Z,31.27
2023-12-30T18:53:42.355Z,32.35
2023-12-30T18:58:46.650Z,29.02
2023-12-30T19:03:49.750Z,28.38
2023-12-30T19:08:52.847Z,31.33
2023-12-30T19:13:55.646Z,32.85
2023-12-30T19:18:59.149Z,35.47
2023-12-30T19:24:05.601Z,31.55
2023-12-30T19:29:08.695Z,37.47
2023-12-30T19:34:11.529Z,34.08
2023-12-30T19:39:16.182Z,29.08
2023-12-30T19:44:19.522Z,29.33
2023-12-30T19:49:22.518Z,34.78
2023-12-30T19:54:27.084Z,32.65
2023-12-30T19:59:30.497Z,29.50
2023-12-30T20:04:33.587Z,32.75
2023-12-30T20:09:37.628Z,30.35
2023-12-30T20:14:40.387Z,32.53
2023-12-30T20:19:43.501Z,29.88
2023-12-30T20:24:46.388Z,30.63
2023-12-30T20:29:50.910Z,28.58
2023-12-30T20:34:54.267Z,33.22
2023-12-30T20:39:57.159Z,28.23
2023-12-30T20:44:59.729Z,27.83
2023-12-30T20:50:03.936Z,29.98
2023-12-30T20:55:07.955Z,30.15
2023-12-30T21:00:12.470Z,32.67
2023-12-30T21:05:16.421Z,31.77
2023-12-30T21:10:19.667Z,32.88
2023-12-30T21:15:22.491Z,29.55
2023-12-30T21:20:25.651Z,32.10
2023-12-30T21:25:28.582Z,30.42
2023-12-30T21:30:31.630Z,37.65
2023-12-30T21:35:34.265Z,23.63
2023-12-30T21:40:37.205Z,30.20
2023-12-30T21:45:39.980Z,29.75
2023-12-30T21:50:43.717Z,26.63
2023-12-30T21:55:46.742Z,27.83
2023-12-30T22:00:49.760Z,30.55
2023-12-30T22:05:52.458Z,32.70
2023-12-30T22:10:55.294Z,23.23
2023-12-30T22:15:58.666Z,29.88
2023-12-30T22:21:01.455Z,32.78
2023-12-30T22:26:04.192Z,22.08
2023-12-30T22:31:10.701Z,36.65
2023-12-30T22:36:13.465Z,39.38
2023-12-30T22:41:17.403Z,34.22
2023-12-30T22:46:20.170Z,40.25
2023-12-30T22:51:23.690Z,39.22
2023-12-30T22:56:28.093Z,27.77
2023-12-30T23:01:31.187Z,40.00
2023-12-30T23:06:34.092Z,28.48
2023-12-30T23:11:37.908Z,27.30
2023-12-30T23:16:41.739Z,24.65
2023-12-30T23:21:44.689Z,34.40
2023-12-30T23:26:48.274Z,41.95
2023-12-30T23:31:51.571Z,40.90
2023-12-30T23:36:54.497Z,32.15
2023-12-30T23:41:57.580Z,30.02
2023-12-30T23:47:01.344Z,40.67
2023-12-30T23:52:04.404Z,19.63
2023-12-30T23:57:07.175Z,33.38
